Time;durP1;ratioP1;P1;durP2;ratioP2;P2;SDS_P1;SDS_P2;PMS_P1;PMS_P2;Temp;Humidity;BMP_temperature;BMP_pressure;BME280_temperature;BME280_humidity;BME280_pressure;Samples;Min_cycle;Max_cycle;Signal;HPM_P1;HPM_P2
2021/09/10 00:01:05;;;;;;;14.17;12.70;;;19.50;99.90;;;;;;5059726;28;20875;-65
2021/09/10 00:03:36;;;;;;;15.40;13.10;;;19.40;99.90;;;;;;5060032;28;20552;-65
2021/09/10 00:06:06;;;;;;;15.97;14.40;;;19.40;99.90;;;;;;5059646;28;20497;-65
2021/09/10 00:08:32;;;;;;;14.13;12.80;;;19.40;99.90;;;;;;5060077;28;20552;-65
2021/09/10 00:11:01;;;;;;;14.43;13.27;;;19.40;99.90;;;;;;5059600;28;20977;-65
2021/09/10 00:13:28;;;;;;;19.63;13.90;;;19.40;99.90;;;;;;5059403;28;20498;-65
2021/09/10 00:15:56;;;;;;;14.40;13.10;;;19.50;99.90;;;;;;5059470;28;20500;-65
2021/09/10 00:18:23;;;;;;;14.47;13.07;;;19.40;99.90;;;;;;5059679;28;20460;-65
2021/09/10 00:20:56;;;;;;;15.63;13.10;;;19.40;99.90;;;;;;5059631;28;20462;-65
2021/09/10 00:23:23;;;;;;;14.27;12.97;;;19.40;99.90;;;;;;5058950;28;20521;-65
2021/09/10 00:25:50;;;;;;;14.40;13.00;;;19.40;99.90;;;;;;5059315;28;20902;-65
2021/09/10 00:28:18;;;;;;;14.97;13.50;;;19.40;99.90;;;;;;5059344;28;20458;-65
2021/09/10 00:30:46;;;;;;;16.30;12.77;;;19.30;99.90;;;;;;5058621;28;20568;-65
2021/09/10 00:33:13;;;;;;;15.23;13.60;;;19.30;99.90;;;;;;5059283;28;20515;-65
2021/09/10 00:35:40;;;;;;;14.93;13.63;;;19.30;99.90;;;;;;5059363;28;20493;-65
2021/09/10 00:38:11;;;;;;;15.50;14.00;;;19.30;99.90;;;;;;5059154;28;20892;-65
2021/09/10 00:40:38;;;;;;;15.10;13.60;;;19.30;99.90;;;;;;5059410;28;20462;-65
2021/09/10 00:43:05;;;;;;;16.43;14.90;;;19.30;99.90;;;;;;5058541;28;20458;-65
2021/09/10 00:45:33;;;;;;;15.97;14.47;;;19.30;99.90;;;;;;5058825;28;20543;-65
2021/09/10 00:48:01;;;;;;;15.87;14.17;;;19.30;99.90;;;;;;5059267;28;20497;-65
2021/09/10 00:50:28;;;;;;;15.67;14.17;;;19.30;99.90;;;;;;5059371;28;20505;-65
2021/09/10 00:52:55;;;;;;;14.77;13.20;;;19.40;99.90;;;;;;5058969;28;20896;-65
2021/09/10 00:55:25;;;;;;;15.67;14.17;;;19.40;99.90;;;;;;5058309;28;20494;-65
2021/09/10 00:57:55;;;;;;;15.37;13.87;;;19.40;99.90;;;;;;5058986;28;20473;-65
2021/09/10 01:00:22;;;;;;;14.53;13.00;;;19.40;99.90;;;;;;5059008;28;20459;-65
2021/09/10 01:02:53;;;;;;;13.90;12.60;;;19.40;99.90;;;;;;5058765;28;20509;-65
2021/09/10 01:05:20;;;;;;;15.30;13.80;;;19.40;99.90;;;;;;5058086;28;20589;-65
2021/09/10 01:07:48;;;;;;;14.37;13.10;;;19.40;99.90;;;;;;5058516;28;20881;-65
2021/09/10 01:10:16;;;;;;;13.90;12.60;;;19.40;99.90;;;;;;5058557;28;20466;-65
2021/09/10 01:12:47;;;;;;;14.70;13.30;;;19.40;99.90;;;;;;5058333;28;20454;-65
2021/09/10 01:15:14;;;;;;;13.67;12.43;;;19.30;99.90;;;;;;5058151;28;20462;-65
2021/09/10 01:17:41;;;;;;;12.97;11.80;;;19.30;99.90;;;;;;5058370;28;20459;-65
2021/09/10 01:20:11;;;;;;;14.40;13.13;;;19.40;99.90;;;;;;5058387;28;20501;-65
2021/09/10 01:22:38;;;;;;;14.63;12.03;;;19.40;99.90;;;;;;5058527;28;20516;-65
2021/09/10 01:25:12;;;;;;;12.40;11.30;;;19.40;99.90;;;;;;5058104;28;20840;-65
2021/09/10 01:27:40;;;;;;;16.83;11.00;;;19.30;99.90;;;;;;5058031;28;20552;-65
2021/09/10 01:30:09;;;;;;;13.00;11.90;;;19.30;99.90;;;;;;5058151;28;20462;-65
2021/09/10 01:32:36;;;;;;;12.53;11.33;;;19.20;99.90;;;;;;5058316;28;20845;-65
2021/09/10 01:35:03;;;;;;;12.50;11.40;;;19.30;99.90;;;;;;5058373;28;20786;-65
2021/09/10 01:37:30;;;;;;;12.80;11.80;;;19.30;99.90;;;;;;5058098;28;20486;-65
2021/09/10 01:39:58;;;;;;;12.83;11.50;;;19.30;99.90;;;;;;5058033;28;20893;-65
2021/09/10 01:42:26;;;;;;;12.20;11.13;;;19.30;99.90;;;;;;5057642;28;20462;-65
2021/09/10 01:44:53;;;;;;;12.77;11.77;;;19.30;99.90;;;;;;5058079;28;20455;-65
2021/09/10 01:47:20;;;;;;;13.43;12.23;;;19.30;99.90;;;;;;5057394;28;20490;-65
2021/09/10 01:49:47;;;;;;;12.70;11.40;;;19.30;99.90;;;;;;5057757;28;20517;-65
2021/09/10 01:52:14;;;;;;;12.60;11.60;;;19.20;99.90;;;;;;5057733;28;20521;-65
2021/09/10 01:54:41;;;;;;;12.27;11.13;;;19.20;99.90;;;;;;5057724;28;20458;-65
2021/09/10 01:57:08;;;;;;;11.70;10.60;;;19.20;99.90;;;;;;5057298;28;20486;-65
2021/09/10 01:59:37;;;;;;;13.00;11.70;;;19.20;99.90;;;;;;5057683;28;20458;-65
2021/09/10 02:02:04;;;;;;;13.67;11.93;;;19.20;99.90;;;;;;5057201;28;20919;-65
2021/09/10 02:04:31;;;;;;;11.50;10.47;;;19.20;99.90;;;;;;5057632;28;20898;-65
2021/09/10 02:06:58;;;;;;;13.30;12.00;;;19.30;99.90;;;;;;5056846;28;20539;-65
2021/09/10 02:09:25;;;;;;;19.70;12.07;;;19.20;99.90;;;;;;5057279;28;20497;-65
2021/09/10 02:11:52;;;;;;;12.83;11.60;;;19.30;99.90;;;;;;5057494;28;20923;-65
2021/09/10 02:14:18;;;;;;;13.83;10.90;;;19.30;99.90;;;;;;5057345;28;20493;-65
2021/09/10 02:16:47;;;;;;;12.70;11.60;;;19.30;99.90;;;;;;5057539;28;20454;-65
2021/09/10 02:19:14;;;;;;;12.43;11.37;;;19.30;99.90;;;;;;5056901;28;20493;-65
2021/09/10 02:21:41;;;;;;;11.37;10.47;;;19.30;99.90;;;;;;5057087;28;20491;-65
2021/09/10 02:24:09;;;;;;;12.87;11.70;;;19.20;99.90;;;;;;5057121;28;20889;-65
2021/09/10 02:26:36;;;;;;;12.80;11.57;;;19.20;99.90;;;;;;5057304;28;20835;-65
2021/09/10 02:29:03;;;;;;;13.10;12.00;;;19.20;99.90;;;;;;5057403;28;20486;-65
2021/09/10 02:31:31;;;;;;;12.37;11.27;;;19.10;99.90;;;;;;5056998;28;20900;-65
2021/09/10 02:34:00;;;;;;;14.17;11.57;;;19.10;99.90;;;;;;5057496;28;20491;-65
2021/09/10 02:36:27;;;;;;;15.37;12.03;;;19.10;99.90;;;;;;5057164;28;20815;-65
2021/09/10 02:38:54;;;;;;;18.80;12.50;;;19.10;99.90;;;;;;5057466;28;20895;-65
2021/09/10 02:41:22;;;;;;;13.47;12.07;;;19.10;99.90;;;;;;5056967;28;20498;-65
2021/09/10 02:43:51;;;;;;;12.60;11.40;;;19.00;99.90;;;;;;5057063;28;20491;-65
2021/09/10 02:46:18;;;;;;;14.13;12.60;;;19.00;99.90;;;;;;5056835;28;20518;-65
2021/09/10 02:48:45;;;;;;;13.40;12.20;;;19.00;99.90;;;;;;5066751;28;20526;-65
2021/09/10 02:51:17;;;;;;;13.53;12.43;;;18.90;99.90;;;;;;5056650;28;20472;-65
2021/09/10 02:53:44;;;;;;;12.30;11.10;;;18.90;99.90;;;;;;5055447;28;20765;-65
2021/09/10 02:56:11;;;;;;;15.23;12.60;;;18.90;99.90;;;;;;5056735;28;20537;-65
2021/09/10 02:58:38;;;;;;;13.10;12.10;;;18.80;99.90;;;;;;5056945;28;20506;-65
2021/09/10 03:01:05;;;;;;;12.87;11.73;;;18.90;99.90;;;;;;5056623;28;20493;-65
2021/09/10 03:03:32;;;;;;;12.87;11.67;;;18.80;99.90;;;;;;5056634;28;20497;-65
2021/09/10 03:05:59;;;;;;;13.57;12.30;;;18.70;99.90;;;;;;5056854;28;20975;-65
2021/09/10 03:08:27;;;;;;;12.40;11.30;;;18.60;99.90;;;;;;5056433;28;20466;-65
2021/09/10 03:10:54;;;;;;;14.27;12.90;;;18.60;99.90;;;;;;5056449;28;20489;-65
2021/09/10 03:13:21;;;;;;;13.70;11.00;;;18.50;99.90;;;;;;5056841;28;20463;-65
2021/09/10 03:15:48;;;;;;;12.87;11.67;;;18.50;99.90;;;;;;5056231;28;20493;-65
2021/09/10 03:18:15;;;;;;;13.57;12.27;;;18.50;99.90;;;;;;5058752;28;20460;-65
2021/09/10 03:20:43;;;;;;;13.73;12.57;;;18.40;99.90;;;;;;5060744;28;20462;-65
2021/09/10 03:23:10;;;;;;;13.37;12.10;;;18.40;99.90;;;;;;5060095;28;21005;-65
2021/09/10 03:25:38;;;;;;;13.30;12.00;;;18.40;99.90;;;;;;5060462;28;20819;-65
2021/09/10 03:28:05;;;;;;;14.50;13.07;;;18.40;99.90;;;;;;5060637;28;20767;-65
2021/09/10 03:30:32;;;;;;;13.70;12.60;;;18.30;99.90;;;;;;5060347;28;20504;-65
2021/09/10 03:32:59;;;;;;;14.23;12.70;;;18.20;99.90;;;;;;5060575;28;20489;-65
2021/09/10 03:35:26;;;;;;;12.40;11.40;;;18.20;99.90;;;;;;5060085;28;20462;-65
2021/09/10 03:37:54;;;;;;;14.23;12.23;;;18.10;99.90;;;;;;5060419;28;20512;-65
2021/09/10 03:40:21;;;;;;;13.50;12.37;;;18.10;99.90;;;;;;5060492;28;20497;-65
2021/09/10 03:42:50;;;;;;;15.00;13.60;;;18.20;99.90;;;;;;5060392;28;20462;-65
2021/09/10 03:45:17;;;;;;;15.43;14.03;;;18.20;99.90;;;;;;5060045;28;20516;-65
2021/09/10 03:47:44;;;;;;;14.03;12.83;;;18.20;99.90;;;;;;5059915;28;20494;-65
2021/09/10 03:50:11;;;;;;;15.23;13.93;;;18.20;99.90;;;;;;5060132;28;20512;-65
2021/09/10 03:52:38;;;;;;;15.77;14.40;;;18.30;99.90;;;;;;5052785;28;20506;-65
2021/09/10 03:55:06;;;;;;;15.17;13.30;;;18.20;99.90;;;;;;5059766;28;20458;-65
2021/09/10 03:57:36;;;;;;;14.83;13.53;;;18.20;99.90;;;;;;5042043;28;20495;-65
2021/09/10 04:00:05;;;;;;;15.93;14.33;;;18.20;99.90;;;;;;5041269;28;20517;-65
2021/09/10 04:02:32;;;;;;;15.60;14.03;;;18.20;99.90;;;;;;5060310;28;20592;-65
2021/09/10 04:04:59;;;;;;;14.47;13.27;;;18.10;99.90;;;;;;5059416;28;20975;-65
2021/09/10 04:07:26;;;;;;;15.27;13.87;;;18.10;99.90;;;;;;5059843;28;20943;-65
2021/09/10 04:09:53;;;;;;;14.80;13.50;;;18.10;99.90;;;;;;5059567;28;20497;-65
2021/09/10 04:12:20;;;;;;;16.43;14.77;;;18.10;99.90;;;;;;5059884;28;20485;-65
2021/09/10 04:14:47;;;;;;;15.17;13.50;;;18.00;99.90;;;;;;5059696;28;20603;-65
2021/09/10 04:17:16;;;;;;;16.07;14.27;;;18.00;99.90;;;;;;5051839;28;20506;-65
2021/09/10 04:19:43;;;;;;;17.00;14.60;;;18.00;99.90;;;;;;5051573;28;20901;-65
2021/09/10 04:22:14;;;;;;;16.23;14.80;;;18.00;99.90;;;;;;5057596;28;20535;-65
2021/09/10 04:24:41;;;;;;;15.33;13.83;;;18.00;99.90;;;;;;5045501;28;20544;-65
2021/09/10 04:27:09;;;;;;;14.13;12.63;;;17.90;99.90;;;;;;5048775;28;20534;-65
2021/09/10 04:29:35;;;;;;;17.13;15.40;;;17.80;99.90;;;;;;5055292;28;20520;-66
2021/09/10 04:32:03;;;;;;;16.73;14.30;;;17.80;99.90;;;;;;5057303;28;20478;-70
2021/09/10 04:34:31;;;;;;;17.30;14.90;;;17.80;99.90;;;;;;5058895;28;20515;-70
2021/09/10 04:36:58;;;;;;;15.17;13.77;;;17.80;99.90;;;;;;5058626;28;20482;-69
2021/09/10 04:39:25;;;;;;;15.30;13.93;;;17.80;99.90;;;;;;5058706;28;20896;-69
2021/09/10 04:41:51;;;;;;;15.67;13.87;;;17.80;99.90;;;;;;5058562;28;20463;-69
2021/09/10 04:44:18;;;;;;;15.10;13.63;;;17.80;99.90;;;;;;5058947;28;20505;-70
2021/09/10 04:46:45;;;;;;;16.73;14.93;;;17.80;99.90;;;;;;5057949;28;20536;-70
2021/09/10 04:49:12;;;;;;;16.20;14.60;;;17.80;99.90;;;;;;5058230;28;20462;-70
2021/09/10 04:51:41;;;;;;;15.93;14.30;;;17.90;99.90;;;;;;5058627;28;20827;-70
2021/09/10 04:54:08;;;;;;;14.90;13.40;;;17.90;99.90;;;;;;5059008;28;20548;-70
2021/09/10 04:56:35;;;;;;;17.30;15.73;;;17.90;99.90;;;;;;5058334;28;20973;-69
2021/09/10 04:59:02;;;;;;;16.33;14.43;;;17.80;99.90;;;;;;5058378;28;20469;-69
2021/09/10 05:01:29;;;;;;;16.27;14.67;;;17.80;99.90;;;;;;5058926;28;20557;-69
2021/09/10 05:03:56;;;;;;;16.80;15.10;;;17.80;99.90;;;;;;5058895;28;20466;-70
2021/09/10 05:06:23;;;;;;;17.33;14.90;;;17.90;99.90;;;;;;5058427;28;20479;-70
2021/09/10 05:08:52;;;;;;;16.03;14.70;;;17.90;99.90;;;;;;5058624;28;20892;-70
2021/09/10 05:11:18;;;;;;;15.13;13.47;;;17.90;99.90;;;;;;5057554;28;20458;-69
2021/09/10 05:13:46;;;;;;;15.43;14.10;;;17.90;99.90;;;;;;5058720;28;20485;-70
2021/09/10 05:16:15;;;;;;;15.57;14.20;;;18.00;99.90;;;;;;5057913;28;20501;-70
2021/09/10 05:18:42;;;;;;;15.37;13.73;;;18.00;99.90;;;;;;5058497;28;20468;-70
2021/09/10 05:21:15;;;;;;;16.00;14.70;;;18.00;99.90;;;;;;5058366;28;20822;-70
2021/09/10 05:23:42;;;;;;;18.27;13.83;;;18.00;99.90;;;;;;5038147;28;20501;-70
2021/09/10 05:26:13;;;;;;;16.27;14.80;;;18.10;99.90;;;;;;5057890;28;20603;-70
2021/09/10 05:28:43;;;;;;;16.27;14.87;;;18.10;99.90;;;;;;5057949;28;20564;-70
2021/09/10 05:31:10;;;;;;;16.23;14.77;;;18.00;99.90;;;;;;5058185;28;20462;-69
2021/09/10 05:33:37;;;;;;;14.40;13.10;;;18.10;99.90;;;;;;5058241;28;20462;-70
2021/09/10 05:36:05;;;;;;;15.30;14.00;;;18.10;99.90;;;;;;5057858;28;20501;-70
2021/09/10 05:38:32;;;;;;;16.13;14.80;;;18.10;99.90;;;;;;5058033;28;20458;-70
2021/09/10 05:40:59;;;;;;;17.40;15.90;;;18.10;99.90;;;;;;5057403;28;20474;-70
2021/09/10 05:43:29;;;;;;;15.13;13.70;;;18.10;99.90;;;;;;5056227;28;20462;-70
2021/09/10 05:45:56;;;;;;;15.97;14.67;;;18.20;99.90;;;;;;5057226;28;20498;-70
2021/09/10 05:48:23;;;;;;;16.30;14.90;;;18.30;99.90;;;;;;5056725;28;20533;-71
2021/09/10 05:50:51;;;;;;;16.87;15.20;;;18.30;99.90;;;;;;5057589;28;20512;-70
2021/09/10 05:53:18;;;;;;;15.07;13.63;;;18.40;99.90;;;;;;5056065;28;20515;-71
2021/09/10 05:55:45;;;;;;;16.93;15.23;;;18.40;99.90;;;;;;5055277;28;20541;-70
2021/09/10 05:58:12;;;;;;;14.33;13.17;;;18.40;99.90;;;;;;5056530;28;20909;-71
2021/09/10 06:00:40;;;;;;;15.77;14.20;;;18.40;99.90;;;;;;5056812;28;20493;-70
2021/09/10 06:03:07;;;;;;;15.43;13.57;;;18.40;99.90;;;;;;5056731;28;20509;-70
2021/09/10 06:05:34;;;;;;;14.53;13.10;;;18.40;99.90;;;;;;5057059;28;20520;-70
2021/09/10 06:08:05;;;;;;;14.20;12.90;;;18.50;99.90;;;;;;5056974;28;21003;-71
2021/09/10 06:10:32;;;;;;;15.37;13.73;;;18.50;99.90;;;;;;5048828;28;20463;-71
2021/09/10 06:12:59;;;;;;;14.63;13.27;;;18.60;99.90;;;;;;5056954;28;20470;-71
2021/09/10 06:15:28;;;;;;;15.77;14.20;;;18.60;99.90;;;;;;5057494;28;20917;-71
2021/09/10 06:17:57;;;;;;;14.13;12.83;;;18.60;99.90;;;;;;5057373;28;20462;-71
2021/09/10 06:20:24;;;;;;;14.57;13.00;;;18.90;99.90;;;;;;5056999;28;20486;-71
2021/09/10 06:22:53;;;;;;;12.67;11.37;;;19.10;99.90;;;;;;5056923;28;20784;-72
2021/09/10 06:25:20;;;;;;;13.20;12.00;;;19.40;99.90;;;;;;5057383;28;20468;-72
2021/09/10 06:27:47;;;;;;;12.10;10.90;;;19.60;99.90;;;;;;5053785;28;20497;-72
2021/09/10 06:30:14;;;;;;;11.60;10.50;;;19.70;99.90;;;;;;5055751;28;20462;-72
2021/09/10 06:32:41;;;;;;;12.00;10.80;;;19.60;99.90;;;;;;5055907;28;20450;-71
2021/09/10 06:35:13;;;;;;;12.80;11.50;;;19.60;99.90;;;;;;5056844;28;20818;-71
2021/09/10 06:37:40;;;;;;;11.83;10.83;;;19.50;99.90;;;;;;5056702;28;20829;-71
2021/09/10 06:40:09;;;;;;;11.13;10.20;;;19.60;99.90;;;;;;5056735;28;20473;-71
2021/09/10 06:42:35;;;;;;;13.10;11.83;;;19.70;99.90;;;;;;5057011;28;20524;-71
2021/09/10 06:45:02;;;;;;;12.07;11.10;;;19.90;99.90;;;;;;5056275;28;20527;-71
2021/09/10 06:47:29;;;;;;;11.50;10.50;;;20.10;99.90;;;;;;5056918;28;20526;-70
2021/09/10 06:49:56;;;;;;;13.30;10.80;;;20.30;99.90;;;;;;5056770;28;20490;-70
2021/09/10 06:52:26;;;;;;;11.03;10.00;;;20.40;99.90;;;;;;5056159;28;20466;-70
2021/09/10 06:54:53;;;;;;;11.90;10.70;;;20.30;99.90;;;;;;5056163;28;20848;-69
2021/09/10 06:57:22;;;;;;;10.43;9.53;;;20.20;99.90;;;;;;5056875;28;20497;-69
2021/09/10 06:59:49;;;;;;;10.90;9.90;;;20.00;1.00;;;;;;5057027;28;20468;-68
2021/09/10 07:02:16;;;;;;;11.47;10.47;;;19.90;48.00;;;;;;5057261;28;20493;-68
2021/09/10 07:04:46;;;;;;;11.93;10.73;;;19.80;1.00;;;;;;5037577;28;20836;-68
2021/09/10 07:07:15;;;;;;;13.13;11.80;;;19.80;1.00;;;;;;5037575;28;20491;-68
2021/09/10 07:09:46;;;;;;;11.03;10.00;;;19.80;21.50;;;;;;5038161;28;20487;-68
2021/09/10 07:12:13;;;;;;;11.80;10.80;;;19.80;1.00;;;;;;5052852;28;20469;-67
2021/09/10 07:14:41;;;;;;;11.80;10.70;;;19.90;1.00;;;;;;5056208;28;20742;-67
2021/09/10 07:17:08;;;;;;;10.03;9.23;;;20.20;1.00;;;;;;5056447;28;20505;-66
2021/09/10 07:19:41;;;;;;;9.83;8.70;;;20.50;99.90;;;;;;5056737;28;20505;-66
2021/09/10 07:22:08;;;;;;;9.73;8.80;;;21.10;99.90;;;;;;5056184;28;20461;-65
2021/09/10 07:24:38;;;;;;;9.33;8.17;;;21.70;99.90;;;;;;5075887;28;20544;-64
2021/09/10 07:27:08;;;;;;;9.70;8.20;;;22.10;1.00;;;;;;5056319;28;20824;-64
2021/09/10 07:29:38;;;;;;;8.53;7.83;;;22.00;1.00;;;;;;5056873;28;20466;-63
2021/09/10 07:32:05;;;;;;;11.17;8.63;;;22.00;1.00;;;;;;5055986;28;20911;-63
2021/09/10 07:34:32;;;;;;;8.70;7.90;;;21.80;1.00;;;;;;5055919;28;20506;-62
2021/09/10 07:36:59;;;;;;;9.30;8.60;;;21.70;1.00;;;;;;5055445;28;20508;-62
2021/09/10 07:39:27;;;;;;;9.50;8.70;;;21.60;1.00;;;;;;5056537;28;20458;-62
2021/09/10 07:41:56;;;;;;;7.03;6.43;;;21.60;1.00;;;;;;5056633;28;20908;-61
2021/09/10 07:44:26;;;;;;;9.20;8.40;;;21.80;1.00;;;;;;5054521;28;20462;-61
2021/09/10 07:46:53;;;;;;;9.60;8.70;;;21.70;1.00;;;;;;5056299;28;20489;-58
2021/09/10 07:49:20;;;;;;;8.00;7.37;;;21.70;1.00;;;;;;5056315;28;20940;-60
2021/09/10 07:51:50;;;;;;;8.50;7.53;;;21.70;1.00;;;;;;5056273;28;20458;-58
2021/09/10 07:54:17;;;;;;;8.43;7.63;;;21.70;1.00;;;;;;5055691;28;20489;-58
2021/09/10 07:56:47;;;;;;;7.90;7.30;;;21.70;1.00;;;;;;5056362;28;20497;-58
2021/09/10 07:59:13;;;;;;;9.10;7.33;;;21.80;1.00;;;;;;5056230;28;20462;-59
2021/09/10 08:01:42;;;;;;;7.80;7.10;;;21.70;1.00;;;;;;5056250;28;20462;-58
2021/09/10 08:04:12;;;;;;;8.67;7.27;;;21.70;1.00;;;;;;5056711;28;20462;-57
2021/09/10 08:06:42;;;;;;;17.93;5.90;;;22.10;1.00;;;;;;5059315;28;20552;-57
2021/09/10 08:09:11;;;;;;;8.30;5.90;;;22.60;1.00;;;;;;5059921;28;20525;-55
2021/09/10 08:11:38;;;;;;;6.60;5.93;;;23.10;1.00;;;;;;5049944;28;20825;-58
2021/09/10 08:14:09;;;;;;;6.40;5.80;;;23.50;1.00;;;;;;5059367;28;20552;-56
2021/09/10 08:16:37;;;;;;;5.93;5.43;;;23.80;1.00;;;;;;5057848;28;20477;-55
2021/09/10 08:19:10;;;;;;;7.23;6.50;;;24.10;1.00;;;;;;5059249;28;20486;-54
2021/09/10 08:21:37;;;;;;;8.40;5.40;;;24.50;1.00;;;;;;5059623;28;20490;-54
2021/09/10 08:24:09;;;;;;;5.60;5.10;;;24.80;1.00;;;;;;5058889;28;20509;-58
2021/09/10 08:26:40;;;;;;;6.20;5.60;;;25.10;1.00;;;;;;5058509;28;20466;-57
2021/09/10 08:29:07;;;;;;;5.70;5.10;;;25.00;1.00;;;;;;5052433;28;20542;-54
2021/09/10 08:31:34;;;;;;;6.30;4.63;;;25.20;1.00;;;;;;5059456;28;20896;-54
2021/09/10 08:34:11;;;;;;;4.80;4.40;;;25.60;1.00;;;;;;5058728;28;20490;-53
2021/09/10 08:36:38;;;;;;;4.70;4.20;;;25.90;1.00;;;;;;5059241;28;20934;-53
2021/09/10 08:39:05;;;;;;;6.10;5.30;;;26.20;1.00;;;;;;5059517;28;20493;-57
2021/09/10 08:41:37;;;;;;;6.07;5.23;;;26.30;1.00;;;;;;5059354;28;20462;-54
2021/09/10 08:44:17;;;;;;;5.70;4.77;;;26.10;1.00;;;;;;5058470;28;20466;-52
2021/09/10 08:46:45;;;;;;;5.73;5.10;;;25.30;1.00;;;;;;5059112;28;20501;-53
2021/09/10 08:49:23;;;;;;;6.30;5.60;;;25.50;1.00;;;;;;5059110;28;20588;-49
2021/09/10 08:51:50;;;;;;;5.87;4.90;;;25.70;1.00;;;;;;5058984;28;20441;-51
2021/09/10 08:54:18;;;;;;;5.60;5.10;;;26.00;1.00;;;;;;5058686;28;20490;-50
2021/09/10 08:56:45;;;;;;;6.27;4.83;;;26.10;1.00;;;;;;5058746;28;20512;-48
2021/09/10 08:59:17;;;;;;;5.67;5.17;;;26.20;1.00;;;;;;5058991;28;20516;-52
2021/09/10 09:01:51;;;;;;;5.30;4.67;;;26.90;1.00;;;;;;5058582;28;20491;-52
2021/09/10 09:04:22;;;;;;;5.23;4.43;;;27.10;1.00;;;;;;5058630;28;20466;-50
2021/09/10 09:06:51;;;;;;;5.03;4.63;;;27.10;1.00;;;;;;5058687;28;20458;-49
2021/09/10 09:09:44;;;;;;;4.63;4.23;;;26.90;1.00;;;;;;5057788;28;20493;-52
2021/09/10 09:12:22;;;;;;;5.23;4.43;;;27.10;1.00;;;;;;5041933;28;20535;-50
2021/09/10 09:14:54;;;;;;;5.03;4.13;;;27.50;1.00;;;;;;5057934;28;20489;-53
2021/09/10 09:17:24;;;;;;;6.77;4.80;;;27.90;1.00;;;;;;5058898;28;20569;-50
2021/09/10 09:20:25;;;;;;;5.00;4.03;;;27.80;1.00;;;;;;5058550;28;20468;-52
2021/09/10 09:22:58;;;;;;;4.40;4.10;;;27.60;1.00;;;;;;5058324;28;20572;-55
2021/09/10 09:25:32;;;;;;;4.73;4.33;;;27.20;1.00;;;;;;5058252;28;20469;-51
2021/09/10 09:28:20;;;;;;;4.70;4.30;;;27.20;1.00;;;;;;5058566;28;20529;-52
2021/09/10 09:30:49;;;;;;;5.80;5.30;;;27.30;1.00;;;;;;5058414;28;20462;-50
2021/09/10 09:33:17;;;;;;;5.37;4.93;;;27.40;1.00;;;;;;5057853;28;20512;-52
2021/09/10 09:35:47;;;;;;;4.33;3.87;;;27.50;1.00;;;;;;5057992;28;20472;-52
2021/09/10 09:38:20;;;;;;;4.70;4.30;;;28.00;1.00;;;;;;5057465;28;20520;-50
2021/09/10 09:40:51;;;;;;;7.67;4.90;;;27.90;1.00;;;;;;5057940;28;20873;-52
2021/09/10 09:43:20;;;;;;;5.40;4.57;;;27.70;1.00;;;;;;5057853;28;20490;-54
2021/09/10 09:45:49;;;;;;;4.30;3.90;;;27.50;1.00;;;;;;5056956;28;20908;-56
2021/09/10 09:48:17;;;;;;;8.40;4.33;;;27.40;1.00;;;;;;5058041;28;20530;-49
2021/09/10 09:50:44;;;;;;;4.63;4.23;;;26.20;99.90;;;;;;5057276;28;20462;-49
2021/09/10 09:53:13;;;;;;;5.77;5.27;;;25.70;1.00;;;;;;5056150;28;20497;-50
2021/09/10 09:55:42;;;;;;;5.10;4.70;;;25.20;1.00;;;;;;5056950;28;20473;-48
2021/09/10 09:58:15;;;;;;;5.77;4.87;;;25.80;1.00;;;;;;5057802;28;20527;-47
2021/09/10 10:00:43;;;;;;;5.33;4.93;;;26.50;1.00;;;;;;5037085;28;20514;-47
2021/09/10 10:03:10;;;;;;;4.23;3.83;;;27.30;1.00;;;;;;5057127;28;20466;-48
2021/09/10 10:05:50;;;;;;;5.63;5.13;;;27.90;1.00;;;;;;5057326;28;20564;-51
2021/09/10 10:08:25;;;;;;;7.13;4.90;;;28.00;1.00;;;;;;5057142;28;20563;-49
2021/09/10 10:10:55;;;;;;;8.00;6.20;;;27.80;99.90;;;;;;5057103;28;20462;-51
2021/09/10 10:13:28;;;;;;;6.63;6.03;;;27.10;99.90;;;;;;5057550;28;20555;-45
2021/09/10 10:15:55;;;;;;;7.17;6.47;;;26.60;99.90;;;;;;5057623;28;20817;-51
2021/09/10 10:18:40;;;;;;;8.60;7.80;;;26.30;1.00;;;;;;5057414;28;20461;-48
2021/09/10 10:21:12;;;;;;;8.40;7.80;;;25.80;1.00;;;;;;5057715;28;20762;-52
2021/09/10 10:24:00;;;;;;;8.73;7.93;;;25.80;1.00;;;;;;5056995;28;20584;-52
2021/09/10 10:26:43;;;;;;;8.97;7.97;;;25.50;1.00;;;;;;5056582;28;20836;-48
2021/09/10 10:29:18;;;;;;;10.23;9.43;;;25.10;1.00;;;;;;5056986;28;20502;-51
2021/09/10 10:32:04;;;;;;;10.33;9.33;;;24.90;1.00;;;;;;5057680;28;20469;-51
2021/09/10 10:34:32;;;;;;;9.20;8.40;;;24.60;1.00;;;;;;5056256;28;20908;-48
2021/09/10 10:37:02;;;;;;;8.70;8.10;;;24.40;1.00;;;;;;5056717;28;20549;-45
2021/09/10 10:39:31;;;;;;;9.00;8.30;;;24.20;1.00;;;;;;5056222;28;20450;-47
2021/09/10 10:42:00;;;;;;;9.53;8.73;;;24.60;1.00;;;;;;5057101;28;20475;-46
2021/09/10 10:44:49;;;;;;;8.83;8.03;;;24.80;1.00;;;;;;5056447;28;20549;-44
2021/09/10 10:47:20;;;;;;;10.37;9.40;;;25.20;1.00;;;;;;5056942;28;20752;-46
2021/09/10 10:49:49;;;;;;;10.00;8.37;;;25.90;1.00;;;;;;5056760;28;20880;-51
2021/09/10 10:52:41;;;;;;;9.33;8.43;;;26.50;1.00;;;;;;5056637;28;20462;-45
2021/09/10 10:55:30;;;;;;;8.43;7.73;;;26.60;1.00;;;;;;5056660;28;20892;-45
2021/09/10 10:58:21;;;;;;;7.83;7.10;;;26.50;1.00;;;;;;5056217;28;20762;-51
2021/09/10 11:00:50;;;;;;;5.73;5.23;;;26.30;1.00;;;;;;5044049;28;20548;-45
2021/09/10 11:03:37;;;;;;;5.50;5.00;;;25.90;1.00;;;;;;5055463;28;20497;-44
2021/09/10 11:06:37;;;;;;;7.70;6.10;;;25.60;1.00;;;;;;5055797;28;20457;-49
2021/09/10 11:09:08;;;;;;;6.60;5.93;;;25.30;1.00;;;;;;5055865;28;20496;-46
2021/09/10 11:11:38;;;;;;;6.40;5.80;;;24.70;1.00;;;;;;5053473;28;20771;-46
2021/09/10 11:14:10;;;;;;;7.37;6.30;;;24.50;1.00;;;;;;5056582;28;20810;-50
2021/09/10 11:16:37;;;;;;;7.03;6.40;;;24.40;1.00;;;;;;5055636;28;20477;-47
2021/09/10 11:19:06;;;;;;;6.97;6.27;;;24.00;1.00;;;;;;5057307;28;20462;-50
2021/09/10 11:21:33;;;;;;;7.90;7.20;;;23.60;1.00;;;;;;5056471;28;20498;-48
2021/09/10 11:24:10;;;;;;;8.57;7.67;;;23.50;1.00;;;;;;5056214;28;20525;-51
2021/09/10 11:26:39;;;;;;;8.00;7.20;;;23.10;1.00;;;;;;5056021;28;20469;-45
2021/09/10 11:29:13;;;;;;;7.40;6.90;;;23.10;1.00;;;;;;5055709;28;20468;-48
2021/09/10 11:31:41;;;;;;;7.60;6.90;;;23.00;1.00;;;;;;5055392;28;20494;-49
2021/09/10 11:34:07;;;;;;;9.00;8.10;;;22.80;1.00;;;;;;5056400;28;20508;-50
2021/09/10 11:36:35;;;;;;;8.10;7.37;;;22.70;1.00;;;;;;5054786;28;20927;-51
2021/09/10 11:39:10;;;;;;;9.70;8.80;;;22.50;1.00;;;;;;5056210;28;20497;-48
2021/09/10 11:41:38;;;;;;;9.10;8.30;;;22.60;1.00;;;;;;5060182;28;20496;-59
2021/09/10 11:44:07;;;;;;;8.87;8.07;;;22.70;1.00;;;;;;5060083;28;20493;-50
2021/09/10 11:46:35;;;;;;;9.80;8.80;;;22.70;1.00;;;;;;5060385;28;20468;-48
2021/09/10 11:49:02;;;;;;;9.63;8.93;;;22.60;1.00;;;;;;5060020;28;20529;-53
2021/09/10 11:51:45;;;;;;;9.03;8.13;;;22.70;1.00;;;;;;5060113;28;20511;-55
2021/09/10 11:54:15;;;;;;;9.30;8.40;;;23.00;1.00;;;;;;5059764;28;20466;-56
2021/09/10 11:56:45;;;;;;;8.93;8.33;;;23.20;1.00;;;;;;5059980;28;20490;-56
2021/09/10 11:59:25;;;;;;;9.80;8.90;;;23.20;1.00;;;;;;5059988;28;20481;-56
2021/09/10 12:01:52;;;;;;;8.60;7.83;;;23.30;1.00;;;;;;5060101;28;20466;-55
2021/09/10 12:04:37;;;;;;;9.30;8.60;;;23.50;1.00;;;;;;5059581;28;20466;-56
2021/09/10 12:07:07;;;;;;;8.83;8.07;;;23.70;1.00;;;;;;5059838;28;20461;-53
2021/09/10 12:09:37;;;;;;;8.60;7.70;;;23.70;1.00;;;;;;5059542;28;20867;-55
2021/09/10 12:12:27;;;;;;;8.53;7.73;;;24.00;1.00;;;;;;5059705;28;20498;-55
2021/09/10 12:15:02;;;;;;;8.30;7.60;;;24.20;1.00;;;;;;5052927;28;20474;-55
2021/09/10 12:17:36;;;;;;;7.87;5.23;;;24.40;1.00;;;;;;5059749;28;20572;-57
2021/09/10 12:20:10;;;;;;;6.30;5.40;;;24.60;1.00;;;;;;5059325;28;20587;-54
2021/09/10 12:22:53;;;;;;;5.63;5.13;;;24.70;1.00;;;;;;5059719;28;20458;-56
2021/09/10 12:25:49;;;;;;;4.97;3.50;;;24.80;1.00;;;;;;5059219;28;20967;-52
2021/09/10 12:28:41;;;;;;;3.87;3.50;;;24.80;1.00;;;;;;5059706;28;20512;-53
2021/09/10 12:31:14;;;;;;;4.63;4.23;;;25.10;1.00;;;;;;5053919;28;20509;-52
2021/09/10 12:33:43;;;;;;;4.10;3.30;;;25.30;1.00;;;;;;5059059;28;20463;-52
2021/09/10 12:36:11;;;;;;;4.43;4.03;;;25.40;1.00;;;;;;5059538;28;20472;-53
2021/09/10 12:38:43;;;;;;;3.63;3.33;;;25.30;1.00;;;;;;5059568;28;20470;-52
2021/09/10 12:41:11;;;;;;;3.23;2.93;;;25.40;1.00;;;;;;5058495;28;20462;-53
2021/09/10 12:43:42;;;;;;;3.03;2.83;;;25.50;1.00;;;;;;5058892;28;20958;-51
2021/09/10 12:46:16;;;;;;;2.50;2.30;;;25.90;1.00;;;;;;5057358;28;20509;-52
2021/09/10 12:48:49;;;;;;;2.60;2.40;;;25.80;1.00;;;;;;5058703;28;20515;-51
2021/09/10 12:51:17;;;;;;;2.90;2.60;;;25.40;1.00;;;;;;5056974;28;20517;-56
2021/09/10 12:53:44;;;;;;;2.93;2.63;;;25.40;1.00;;;;;;5058713;28;20469;-55